Time;durP1;ratioP1;P1;durP2;ratioP2;P2;SDS_P1;SDS_P2;PMS_P1;PMS_P2;Temp;Humidity;BMP_temperature;BMP_pressure;BME280_temperature;BME280_humidity;BME280_pressure;Samples;Min_cycle;Max_cycle;Signal;HPM_P1;HPM_P2
2022/01/02 00:02:03;;;;;;;16.77;9.43;;;9.20;99.90;;;;;;5046122;28;20466;-73
2022/01/02 00:04:35;;;;;;;12.43;8.37;;;9.20;99.90;;;;;;5033164;28;20463;-74
2022/01/02 00:07:05;;;;;;;10.63;7.97;;;9.20;99.90;;;;;;5045568;28;20463;-73
2022/01/02 00:09:36;;;;;;;12.50;8.50;;;9.10;99.90;;;;;;5030770;28;20459;-73
2022/01/02 00:12:12;;;;;;;12.93;8.50;;;9.10;99.90;;;;;;5010865;28;20507;-73
2022/01/02 00:14:43;;;;;;;12.97;8.67;;;9.10;99.90;;;;;;5011470;28;20457;-73
2022/01/02 00:17:09;;;;;;;12.60;7.67;;;9.10;99.90;;;;;;5018901;28;20482;-74
2022/01/02 00:19:45;;;;;;;12.03;8.17;;;9.10;99.90;;;;;;5019668;28;20490;-74
2022/01/02 00:22:18;;;;;;;12.40;7.90;;;9.10;99.90;;;;;;5036804;28;20219;-74
2022/01/02 00:24:45;;;;;;;14.30;8.03;;;9.10;99.90;;;;;;5010721;28;20543;-73
2022/01/02 00:27:13;;;;;;;12.97;7.97;;;9.10;99.90;;;;;;5010509;28;20523;-73
2022/01/02 00:29:41;;;;;;;12.27;8.07;;;9.10;99.90;;;;;;5010573;28;20466;-74
2022/01/02 00:32:08;;;;;;;11.53;7.67;;;9.10;99.90;;;;;;5030191;28;20502;-74
2022/01/02 00:34:39;;;;;;;16.07;7.80;;;9.00;99.90;;;;;;5016244;28;20460;-73
2022/01/02 00:37:06;;;;;;;13.27;8.13;;;9.00;99.90;;;;;;5052891;28;20463;-73
2022/01/02 00:39:32;;;;;;;11.00;7.20;;;9.00;99.90;;;;;;5034590;28;20494;-74
2022/01/02 00:42:10;;;;;;;9.03;6.97;;;9.00;99.90;;;;;;5038795;28;20886;-74
2022/01/02 00:44:58;;;;;;;14.80;8.17;;;9.00;99.90;;;;;;5027590;28;20467;-74
2022/01/02 00:47:36;;;;;;;12.40;8.33;;;9.00;99.90;;;;;;5029071;28;20455;-73
2022/01/02 00:50:10;;;;;;;16.50;8.70;;;9.00;99.90;;;;;;5045213;28;20459;-73
2022/01/02 00:52:40;;;;;;;11.77;8.13;;;9.00;99.90;;;;;;5046049;28;20558;-74
2022/01/02 00:55:17;;;;;;;10.93;8.03;;;9.00;99.90;;;;;;5016411;28;20454;-73
2022/01/02 00:57:48;;;;;;;9.20;6.30;;;9.00;99.90;;;;;;5045512;28;20457;-75
2022/01/02 01:00:16;;;;;;;10.97;6.73;;;8.90;99.90;;;;;;5045007;28;20872;-74
2022/01/02 01:02:48;;;;;;;10.67;7.40;;;8.90;99.90;;;;;;5045643;28;20455;-75
2022/01/02 01:05:23;;;;;;;11.57;6.90;;;8.90;99.90;;;;;;5053475;28;20505;-73
2022/01/02 01:07:52;;;;;;;10.63;6.20;;;8.90;99.90;;;;;;5029136;28;20474;-74
2022/01/02 01:10:19;;;;;;;13.87;8.63;;;8.90;99.90;;;;;;5029735;28;20839;-74
2022/01/02 01:12:48;;;;;;;20.27;10.50;;;8.90;99.90;;;;;;5044342;28;20471;-74
2022/01/02 01:15:13;;;;;;;15.30;9.67;;;8.90;99.90;;;;;;5044223;28;20455;-73
2022/01/02 01:17:40;;;;;;;16.30;8.43;;;8.90;99.90;;;;;;5045494;28;20863;-73
2022/01/02 01:20:09;;;;;;;13.90;8.20;;;8.90;99.90;;;;;;5018818;28;20225;-74
2022/01/02 01:22:35;;;;;;;11.10;7.07;;;8.90;99.90;;;;;;5013697;28;20482;-74
2022/01/02 01:25:03;;;;;;;9.20;6.40;;;8.80;99.90;;;;;;5033170;28;21193;-74
2022/01/02 01:27:29;;;;;;;10.23;7.00;;;8.80;99.90;;;;;;5039327;28;20220;-73
2022/01/02 01:29:54;;;;;;;11.10;6.17;;;8.80;99.90;;;;;;5023124;28;20476;-73
2022/01/02 01:32:20;;;;;;;8.33;6.53;;;8.80;99.90;;;;;;5020330;28;20455;-73
2022/01/02 01:34:46;;;;;;;8.40;5.67;;;8.80;99.90;;;;;;5016451;28;20229;-73
2022/01/02 01:37:12;;;;;;;9.73;5.63;;;8.70;99.90;;;;;;5025204;28;20229;-73
2022/01/02 01:39:39;;;;;;;8.70;5.93;;;8.70;99.90;;;;;;5009291;28;20217;-74
2022/01/02 01:42:09;;;;;;;6.80;4.87;;;8.60;99.90;;;;;;5024039;28;20463;-73
2022/01/02 01:45:03;;;;;;;5.23;3.90;;;8.70;99.90;;;;;;5022931;28;20230;-73
2022/01/02 01:47:27;;;;;;;5.63;4.37;;;8.70;99.90;;;;;;5030823;28;20455;-74
2022/01/02 01:49:53;;;;;;;4.70;3.90;;;8.70;99.90;;;;;;5029752;28;20893;-73
2022/01/02 01:52:18;;;;;;;4.83;3.83;;;8.70;99.90;;;;;;5027603;28;20555;-73
2022/01/02 01:54:44;;;;;;;4.17;3.77;;;8.80;99.90;;;;;;5006030;28;20213;-76
2022/01/02 01:57:10;;;;;;;4.50;3.70;;;8.70;99.90;;;;;;5004652;28;20324;-73
2022/01/02 01:59:37;;;;;;;3.60;3.30;;;8.70;99.90;;;;;;5004136;28;20213;-74
2022/01/02 02:02:03;;;;;;;4.10;3.73;;;8.70;99.90;;;;;;5018174;28;20514;-72
2022/01/02 02:04:29;;;;;;;3.23;2.93;;;8.70;99.90;;;;;;5024170;28;20459;-74
2022/01/02 02:06:58;;;;;;;4.10;3.43;;;8.70;99.90;;;;;;5037442;28;20467;-73
2022/01/02 02:09:28;;;;;;;3.60;3.20;;;8.70;99.90;;;;;;5032795;28;20462;-73
2022/01/02 02:11:59;;;;;;;2.70;2.50;;;8.70;99.90;;;;;;5012748;28;20456;-73
2022/01/02 02:14:26;;;;;;;3.50;3.07;;;8.70;99.90;;;;;;5024578;28;20447;-73
2022/01/02 02:16:52;;;;;;;4.90;3.30;;;8.70;99.90;;;;;;5022586;28;20480;-73
2022/01/02 02:19:18;;;;;;;5.10;3.37;;;8.70;99.90;;;;;;5024476;28;20536;-73
2022/01/02 02:21:44;;;;;;;4.63;3.13;;;8.60;99.90;;;;;;5044182;28;20231;-73
2022/01/02 02:24:10;;;;;;;4.30;3.17;;;8.70;99.90;;;;;;5045297;28;20225;-73
2022/01/02 02:26:37;;;;;;;3.20;2.90;;;8.70;99.90;;;;;;5011978;28;20461;-73
2022/01/02 02:29:05;;;;;;;3.17;2.97;;;8.70;99.90;;;;;;5008130;28;20555;-73
2022/01/02 02:31:31;;;;;;;5.27;3.07;;;8.70;99.90;;;;;;5007691;28;20539;-74
2022/01/02 02:33:57;;;;;;;3.37;2.97;;;8.70;99.90;;;;;;5014171;28;20536;-74
2022/01/02 02:36:23;;;;;;;5.77;3.30;;;8.70;99.90;;;;;;5024280;28;20224;-73
2022/01/02 02:38:49;;;;;;;7.93;3.50;;;8.70;99.90;;;;;;5041830;28;20209;-73
2022/01/02 02:41:14;;;;;;;4.20;3.00;;;8.60;99.90;;;;;;5015467;28;20444;-73
2022/01/02 02:43:53;;;;;;;5.00;3.20;;;8.60;99.90;;;;;;5025428;28;20213;-74
2022/01/02 02:49:10;;;;;;;4.33;3.00;;;8.60;99.90;;;;;;5004377;28;20500;-74
2022/01/02 02:51:46;;;;;;;;;;;;;;;;;;;;;
2022/01/02 02:54:06;;;;;;;3.20;2.70;;;8.60;99.90;;;;;;5023807;28;20217;-74
2022/01/02 02:56:43;;;;;;;5.27;3.47;;;8.60;99.90;;;;;;5007117;28;20460;-74
2022/01/02 02:59:11;;;;;;;3.77;3.07;;;8.60;99.90;;;;;;5031076;28;20462;-73
2022/01/02 03:01:37;;;;;;;6.27;3.37;;;8.60;99.90;;;;;;5025582;28;20851;-73
2022/01/02 03:04:03;;;;;;;4.47;3.23;;;8.60;99.90;;;;;;5026695;28;20599;-74
2022/01/02 03:06:29;;;;;;;4.27;3.40;;;8.60;99.90;;;;;;5015343;28;20539;-74
2022/01/02 03:08:59;;;;;;;4.67;3.30;;;8.60;99.90;;;;;;5007548;28;20232;-73
2022/01/02 03:11:26;;;;;;;5.37;3.77;;;8.60;99.90;;;;;;5005258;28;20252;-74
2022/01/02 03:13:54;;;;;;;8.07;4.20;;;8.60;99.90;;;;;;5029189;28;20455;-74
2022/01/02 03:16:20;;;;;;;4.37;3.53;;;8.60;99.90;;;;;;5049498;28;20485;-74
2022/01/02 03:18:47;;;;;;;4.90;3.40;;;8.60;99.90;;;;;;5004422;28;20571;-74
2022/01/02 03:21:13;;;;;;;4.53;3.83;;;8.60;99.90;;;;;;5007566;28;20869;-73
2022/01/02 03:23:39;;;;;;;5.20;3.33;;;8.60;99.90;;;;;;4987718;28;20739;-74
2022/01/02 03:26:06;;;;;;;4.70;3.43;;;8.60;99.90;;;;;;4989799;28;20485;-74
2022/01/02 03:28:32;;;;;;;4.50;3.17;;;8.60;99.90;;;;;;4984974;28;20478;-74
2022/01/02 03:30:58;;;;;;;5.13;3.07;;;8.60;99.90;;;;;;5005978;28;20518;-74
2022/01/02 03:33:26;;;;;;;4.60;2.97;;;8.60;99.90;;;;;;5005790;28;20455;-73
2022/01/02 03:35:51;;;;;;;4.70;3.07;;;8.60;99.90;;;;;;5015184;28;20461;-74
2022/01/02 03:38:18;;;;;;;4.77;3.93;;;8.60;99.90;;;;;;5010114;28;20209;-74
2022/01/02 03:40:44;;;;;;;5.10;3.63;;;8.60;99.90;;;;;;5007438;28;20489;-74
2022/01/02 03:43:10;;;;;;;4.23;3.13;;;8.60;99.90;;;;;;5007746;28;20964;-74
2022/01/02 03:45:36;;;;;;;4.00;3.57;;;8.60;99.90;;;;;;5010142;28;20303;-74
2022/01/02 03:48:03;;;;;;;4.57;3.63;;;8.50;99.90;;;;;;5008239;28;20689;-74
2022/01/02 03:50:29;;;;;;;4.90;4.00;;;8.60;99.90;;;;;;5011855;28;20455;-74
2022/01/02 03:52:57;;;;;;;4.70;3.30;;;8.50;99.90;;;;;;5025160;28;20554;-74
2022/01/02 03:55:22;;;;;;;3.97;3.13;;;8.50;99.90;;;;;;5006229;28;20506;-74
2022/01/02 03:57:48;;;;;;;4.00;3.27;;;8.50;99.90;;;;;;5001952;28;20216;-73
2022/01/02 04:00:16;;;;;;;3.47;3.10;;;8.50;99.90;;;;;;4991441;28;20292;-73
2022/01/02 04:02:43;;;;;;;4.30;3.83;;;8.50;99.90;;;;;;4997191;28;20998;-75
2022/01/02 04:05:12;;;;;;;5.47;4.07;;;8.50;99.90;;;;;;5030566;28;20474;-73
2022/01/02 04:07:39;;;;;;;4.23;3.80;;;8.50;99.90;;;;;;5006730;28;20460;-74
2022/01/02 04:10:08;;;;;;;5.37;3.40;;;8.50;99.90;;;;;;5010601;28;20539;-74
2022/01/02 04:12:35;;;;;;;5.27;3.90;;;8.50;99.90;;;;;;5013276;28;20448;-74
2022/01/02 04:15:03;;;;;;;7.43;4.10;;;8.50;99.90;;;;;;5050484;28;20466;-74
2022/01/02 04:17:28;;;;;;;4.80;3.30;;;8.50;99.90;;;;;;5033759;28;20524;-74
2022/01/02 04:19:54;;;;;;;4.07;3.67;;;8.50;99.90;;;;;;5027266;28;20511;-74
2022/01/02 04:22:20;;;;;;;4.00;3.60;;;8.50;99.90;;;;;;5010604;28;20221;-73
2022/01/02 04:24:47;;;;;;;3.83;3.40;;;8.50;99.90;;;;;;5010889;28;20606;-73
2022/01/02 04:27:13;;;;;;;4.93;3.47;;;8.50;99.90;;;;;;5029201;28;20231;-72
2022/01/02 04:29:40;;;;;;;5.17;3.60;;;8.50;99.90;;;;;;5033150;28;21010;-74
2022/01/02 04:32:06;;;;;;;3.73;3.33;;;8.40;99.90;;;;;;5044191;28;20443;-74
2022/01/02 04:34:32;;;;;;;3.87;3.10;;;8.40;99.90;;;;;;5042499;28;20624;-73
2022/01/02 04:36:58;;;;;;;5.17;3.60;;;8.40;99.90;;;;;;5043139;28;20220;-74
2022/01/02 04:39:24;;;;;;;3.40;3.10;;;8.40;99.90;;;;;;5030602;28;20443;-73
2022/01/02 04:41:50;;;;;;;3.97;2.90;;;8.40;99.90;;;;;;5029585;28;20558;-73
2022/01/02 04:44:16;;;;;;;3.20;2.90;;;8.40;99.90;;;;;;5026230;28;20307;-74
2022/01/02 04:46:42;;;;;;;3.70;3.40;;;8.40;99.90;;;;;;5027680;28;20270;-74
2022/01/02 04:49:07;;;;;;;3.87;3.40;;;8.40;99.90;;;;;;5029481;28;20240;-74
2022/01/02 04:51:33;;;;;;;4.43;3.13;;;8.40;99.90;;;;;;5031508;28;20462;-73
2022/01/02 04:53:59;;;;;;;4.60;3.20;;;8.30;99.90;;;;;;5035666;28;20647;-74
2022/01/02 04:56:25;;;;;;;4.70;3.97;;;8.40;99.90;;;;;;5028459;28;20677;-73
2022/01/02 04:58:51;;;;;;;5.40;3.30;;;8.40;99.90;;;;;;5033527;28;20496;-74
2022/01/02 05:01:17;;;;;;;5.67;3.77;;;8.40;99.90;;;;;;5051932;28;20440;-74
2022/01/02 05:03:43;;;;;;;4.40;3.13;;;8.30;99.90;;;;;;5026484;28;20555;-75
2022/01/02 05:06:11;;;;;;;4.40;3.33;;;8.30;99.90;;;;;;5029389;28;20220;-73
2022/01/02 05:08:37;;;;;;;5.07;3.90;;;8.30;99.90;;;;;;5030265;28;20467;-74
2022/01/02 05:11:04;;;;;;;5.40;3.83;;;8.30;99.90;;;;;;5035359;28;20445;-74
2022/01/02 05:13:30;;;;;;;7.77;3.53;;;8.30;99.90;;;;;;5048949;28;20522;-74
2022/01/02 05:15:56;;;;;;;3.80;3.30;;;8.30;99.90;;;;;;5029153;28;20456;-74
2022/01/02 05:18:23;;;;;;;6.30;4.17;;;8.30;99.90;;;;;;5029665;28;20585;-74
2022/01/02 05:20:48;;;;;;;4.90;3.80;;;8.30;99.90;;;;;;5046018;28;20528;-74
2022/01/02 05:23:14;;;;;;;5.37;3.73;;;8.30;99.90;;;;;;5033242;28;20542;-73
2022/01/02 05:25:40;;;;;;;5.53;4.03;;;8.30;99.90;;;;;;5026273;28;20228;-74
2022/01/02 05:28:06;;;;;;;5.00;4.00;;;8.30;99.90;;;;;;5009978;28;20217;-73
2022/01/02 05:30:32;;;;;;;5.97;3.60;;;8.30;99.90;;;;;;5009851;28;20248;-74
2022/01/02 05:32:57;;;;;;;6.80;4.23;;;8.30;99.90;;;;;;5015644;28;20224;-74
2022/01/02 05:35:23;;;;;;;5.27;3.87;;;8.30;99.90;;;;;;5038447;28;20217;-74
2022/01/02 05:37:49;;;;;;;5.97;4.40;;;8.30;99.90;;;;;;5045422;28;20213;-74
2022/01/02 05:40:15;;;;;;;8.10;5.03;;;8.20;99.90;;;;;;5029484;28;20212;-74
2022/01/02 05:42:41;;;;;;;4.10;3.43;;;8.20;99.90;;;;;;5028672;28;20212;-74
2022/01/02 05:45:07;;;;;;;5.17;3.43;;;8.20;99.90;;;;;;5019539;28;20274;-73
2022/01/02 05:47:33;;;;;;;7.00;4.00;;;8.20;99.90;;;;;;5029405;28;20455;-74
2022/01/02 05:49:58;;;;;;;6.30;4.23;;;8.30;99.90;;;;;;5025849;28;20465;-74
2022/01/02 05:52:24;;;;;;;5.30;3.70;;;8.30;99.90;;;;;;5040535;28;20239;-74
2022/01/02 05:54:50;;;;;;;4.90;3.40;;;8.30;99.90;;;;;;5052328;28;20783;-73
2022/01/02 05:57:16;;;;;;;3.80;3.27;;;8.30;99.90;;;;;;5045619;28;20240;-73
2022/01/02 05:59:41;;;;;;;3.43;2.77;;;8.20;99.90;;;;;;5029002;28;20220;-74
2022/01/02 06:02:07;;;;;;;4.03;3.17;;;8.30;99.90;;;;;;5024380;28;20221;-73
2022/01/02 06:04:34;;;;;;;3.10;2.77;;;8.20;99.90;;;;;;5041448;28;20220;-73
2022/01/02 06:07:00;;;;;;;4.73;3.23;;;8.20;99.90;;;;;;5007958;28;20510;-74
2022/01/02 06:09:26;;;;;;;4.20;2.93;;;8.20;99.90;;;;;;5012334;28;20254;-74
2022/01/02 06:11:52;;;;;;;4.40;3.40;;;8.20;99.90;;;;;;5027977;28;20451;-75
2022/01/02 06:14:19;;;;;;;4.80;3.37;;;8.20;99.90;;;;;;5020177;28;20299;-73
2022/01/02 06:16:45;;;;;;;4.80;3.50;;;8.20;99.90;;;;;;5028413;28;20567;-74
2022/01/02 06:19:10;;;;;;;3.20;2.90;;;8.20;99.90;;;;;;5030016;28;20304;-73
2022/01/02 06:21:36;;;;;;;5.13;3.37;;;8.20;99.90;;;;;;5027034;28;20229;-74
2022/01/02 06:24:02;;;;;;;4.83;3.77;;;8.20;99.90;;;;;;5028659;28;20277;-73
2022/01/02 06:26:28;;;;;;;3.77;2.80;;;8.20;99.90;;;;;;5026944;28;20224;-73
2022/01/02 06:28:54;;;;;;;5.63;4.17;;;8.20;99.90;;;;;;5025656;28;20250;-74
2022/01/02 06:31:19;;;;;;;4.90;3.80;;;8.20;99.90;;;;;;5024288;28;20243;-72
2022/01/02 06:33:45;;;;;;;4.73;3.43;;;8.20;99.90;;;;;;5011183;28;20296;-74
2022/01/02 06:36:11;;;;;;;6.50;4.23;;;8.20;99.90;;;;;;5031382;28;20684;-74
2022/01/02 06:38:36;;;;;;;7.30;4.20;;;8.20;99.90;;;;;;5036703;28;20691;-74
2022/01/02 06:41:03;;;;;;;6.77;4.30;;;8.20;99.90;;;;;;5045115;28;20232;-74
2022/01/02 06:43:31;;;;;;;8.50;5.27;;;8.20;99.90;;;;;;5036741;28;20452;-73
2022/01/02 06:45:57;;;;;;;7.07;6.27;;;8.20;99.90;;;;;;5008258;28;20460;-74
2022/01/02 06:48:22;;;;;;;9.53;6.07;;;8.20;99.90;;;;;;5008867;28;20448;-73
2022/01/02 06:50:48;;;;;;;8.57;5.90;;;8.20;99.90;;;;;;5017260;28;20224;-73
2022/01/02 06:53:14;;;;;;;19.77;9.60;;;8.20;99.90;;;;;;5029107;28;20444;-74
2022/01/02 06:55:40;;;;;;;11.70;8.60;;;8.20;99.90;;;;;;5032945;28;20231;-74
2022/01/02 06:58:06;;;;;;;12.90;7.20;;;8.20;99.90;;;;;;5026447;28;20432;-74
2022/01/02 07:00:33;;;;;;;8.20;5.60;;;8.20;99.90;;;;;;5028584;28;20479;-74
2022/01/02 07:02:59;;;;;;;8.13;5.43;;;8.20;99.90;;;;;;5044000;28;20303;-74
2022/01/02 07:05:24;;;;;;;4.40;4.00;;;8.20;99.90;;;;;;5028275;28;20874;-73
2022/01/02 07:07:52;;;;;;;7.60;4.33;;;8.10;99.90;;;;;;5036684;28;20208;-74
2022/01/02 07:10:19;;;;;;;7.33;3.93;;;8.10;99.90;;;;;;5018417;28;20531;-74
2022/01/02 07:12:45;;;;;;;6.80;4.47;;;8.10;99.90;;;;;;5024977;28;20531;-75
2022/01/02 07:15:11;;;;;;;6.63;4.70;;;8.10;99.90;;;;;;5005003;28;20217;-74
2022/01/02 07:17:37;;;;;;;7.43;4.33;;;8.10;99.90;;;;;;5020623;28;20283;-74
2022/01/02 07:20:08;;;;;;;7.27;5.37;;;8.10;99.90;;;;;;5013426;28;20484;-74
2022/01/02 07:22:34;;;;;;;8.27;6.03;;;8.10;99.90;;;;;;5028147;28;20294;-72
2022/01/02 07:25:00;;;;;;;7.07;5.40;;;8.10;99.90;;;;;;5028228;28;20992;-74
2022/01/02 07:27:25;;;;;;;8.37;5.90;;;8.20;99.90;;;;;;5012303;28;20240;-74
2022/01/02 07:29:51;;;;;;;15.07;9.07;;;8.10;99.90;;;;;;5032050;28;20256;-74
2022/01/02 07:32:18;;;;;;;11.53;8.20;;;8.10;99.90;;;;;;5024912;28;20267;-73
2022/01/02 07:34:44;;;;;;;7.23;5.10;;;8.10;99.90;;;;;;5027881;28;20807;-73
2022/01/02 07:37:10;;;;;;;8.10;5.03;;;8.10;99.90;;;;;;5012475;28;20467;-74
2022/01/02 07:39:36;;;;;;;8.53;5.73;;;8.20;99.90;;;;;;5020116;28;20486;-74
2022/01/02 07:42:02;;;;;;;7.93;5.43;;;8.20;99.90;;;;;;5041718;28;20475;-74
2022/01/02 07:44:37;;;;;;;6.97;5.47;;;8.10;99.90;;;;;;5036101;28;20268;-73
2022/01/02 07:47:04;;;;;;;8.30;5.80;;;8.10;99.90;;;;;;5028247;28;20943;-75
2022/01/02 07:49:29;;;;;;;8.33;5.63;;;8.20;99.90;;;;;;5010846;28;20844;-74
2022/01/02 07:51:55;;;;;;;10.93;5.50;;;8.10;99.90;;;;;;5027248;28;20535;-74
2022/01/02 07:54:21;;;;;;;6.50;5.07;;;8.10;99.90;;;;;;5028045;28;20246;-74
2022/01/02 07:56:46;;;;;;;7.10;4.17;;;8.10;99.90;;;;;;5011415;28;20325;-74
2022/01/02 07:59:12;;;;;;;7.53;4.60;;;8.10;99.90;;;;;;5036393;28;20220;-74
2022/01/02 08:01:38;;;;;;;5.93;4.50;;;8.10;99.90;;;;;;5030872;28;20231;-74
2022/01/02 08:04:04;;;;;;;6.27;4.30;;;8.10;99.90;;;;;;5032702;28;20217;-75
2022/01/02 08:06:29;;;;;;;5.67;4.20;;;8.10;99.90;;;;;;5014610;28;20464;-74
2022/01/02 08:08:55;;;;;;;11.33;5.87;;;8.10;99.90;;;;;;5013747;28;20225;-74
2022/01/02 08:11:21;;;;;;;7.57;5.60;;;8.10;99.90;;;;;;5010677;28;20215;-74
2022/01/02 08:13:47;;;;;;;7.47;5.20;;;8.10;99.90;;;;;;5010780;28;20225;-75
2022/01/02 08:16:13;;;;;;;7.80;5.30;;;8.10;99.90;;;;;;5027326;28;20479;-73
2022/01/02 08:18:40;;;;;;;7.60;5.80;;;8.10;99.90;;;;;;5028085;28;20873;-74
2022/01/02 08:21:07;;;;;;;12.70;8.57;;;8.10;99.90;;;;;;5011244;28;20448;-74
2022/01/02 08:23:33;;;;;;;14.07;8.60;;;8.10;99.90;;;;;;5015323;28;20471;-74
2022/01/02 08:25:59;;;;;;;15.43;8.67;;;8.10;99.90;;;;;;5010438;28;20468;-74
2022/01/02 08:28:25;;;;;;;10.90;7.93;;;8.10;99.90;;;;;;5012663;28;20523;-74
2022/01/02 08:30:51;;;;;;;8.70;6.43;;;8.10;99.90;;;;;;5006288;28;20452;-74
2022/01/02 08:33:17;;;;;;;9.87;5.87;;;8.10;99.90;;;;;;5030779;28;20451;-74
2022/01/02 08:35:43;;;;;;;7.27;5.20;;;8.20;99.90;;;;;;5043040;28;20247;-75
2022/01/02 08:38:10;;;;;;;9.10;6.00;;;8.20;99.90;;;;;;5010763;28;20960;-74
2022/01/02 08:40:37;;;;;;;10.20;5.90;;;8.20;99.90;;;;;;5010543;28;20456;-73
2022/01/02 08:43:03;;;;;;;13.27;6.77;;;8.10;99.90;;;;;;5009549;28;20448;-73
2022/01/02 08:45:29;;;;;;;10.43;6.00;;;8.10;99.90;;;;;;5005726;28;20460;-74
2022/01/02 08:47:55;;;;;;;7.63;5.07;;;8.20;99.90;;;;;;5026059;28;20271;-74
2022/01/02 08:50:20;;;;;;;9.20;6.07;;;8.10;99.90;;;;;;5011049;28;20467;-73
2022/01/02 08:52:46;;;;;;;5.93;5.00;;;8.10;99.90;;;;;;5012367;28;20724;-73
2022/01/02 08:55:12;;;;;;;6.83;4.80;;;8.10;99.90;;;;;;5036313;28;20252;-73
2022/01/02 08:57:38;;;;;;;6.97;4.53;;;8.10;99.90;;;;;;5036459;28;20292;-74
2022/01/02 09:00:05;;;;;;;6.50;4.70;;;8.20;99.90;;;;;;5029262;28;20224;-74
2022/01/02 09:02:30;;;;;;;7.83;5.77;;;8.10;99.90;;;;;;5012274;28;20228;-74
2022/01/02 09:04:56;;;;;;;9.20;6.07;;;8.20;99.90;;;;;;5004508;28;20487;-74
2022/01/02 09:07:22;;;;;;;8.77;6.03;;;8.10;99.90;;;;;;5008013;28;20642;-74
2022/01/02 09:09:47;;;;;;;15.20;10.77;;;8.20;99.90;;;;;;5007751;28;20229;-74
2022/01/02 09:12:14;;;;;;;22.23;10.30;;;8.20;99.90;;;;;;5014065;28;20220;-74
2022/01/02 09:14:41;;;;;;;13.03;7.87;;;8.20;99.90;;;;;;5009795;28;20217;-74
2022/01/02 09:17:07;;;;;;;13.77;8.80;;;8.10;99.90;;;;;;5020657;28;20476;-73
2022/01/02 09:19:32;;;;;;;11.07;7.13;;;8.20;99.90;;;;;;4991389;28;20457;-74
2022/01/02 09:21:58;;;;;;;9.43;6.37;;;8.20;99.90;;;;;;4994277;28;20568;-74
2022/01/02 09:24:24;;;;;;;9.00;6.20;;;8.20;99.90;;;;;;5008628;28;20224;-73
2022/01/02 09:26:49;;;;;;;11.20;7.23;;;8.20;99.90;;;;;;5025621;28;20697;-73
2022/01/02 09:29:15;;;;;;;9.77;6.63;;;8.20;99.90;;;;;;5011186;28;20266;-73
2022/01/02 09:31:41;;;;;;;9.20;6.17;;;8.20;99.90;;;;;;5009404;28;20213;-73
2022/01/02 09:34:08;;;;;;;8.20;5.50;;;8.20;99.90;;;;;;5009460;28;20255;-74
2022/01/02 09:36:34;;;;;;;7.87;6.00;;;8.20;99.90;;;;;;5018110;28;20487;-74
2022/01/02 09:39:00;;;;;;;8.47;5.57;;;8.20;99.90;;;;;;5020536;28;20220;-73
2022/01/02 09:41:26;;;;;;;9.40;6.70;;;8.20;99.90;;;;;;5027481;28;20462;-74
2022/01/02 09:43:51;;;;;;;9.73;7.43;;;8.20;99.90;;;;;;5029830;28;20216;-73
2022/01/02 09:46:21;;;;;;;11.13;7.70;;;8.20;99.90;;;;;;5036756;28;20224;-74
2022/01/02 09:48:49;;;;;;;14.53;7.40;;;8.20;99.90;;;;;;5045870;28;20295;-74
2022/01/02 09:51:20;;;;;;;12.97;7.00;;;8.20;99.90;;;;;;5040264;28;20447;-73
2022/01/02 09:53:47;;;;;;;11.00;8.03;;;8.20;99.90;;;;;;5012814;28;20532;-73
2022/01/02 09:56:14;;;;;;;11.30;7.17;;;8.20;99.90;;;;;;5041893;28;20507;-74
2022/01/02 09:58:42;;;;;;;12.93;8.10;;;8.20;99.90;;;;;;5019438;28;20456;-74
2022/01/02 10:01:15;;;;;;;16.17;9.10;;;8.30;99.90;;;;;;5009672;28;20510;-73
2022/01/02 10:03:46;;;;;;;18.60;10.20;;;8.30;99.90;;;;;;5025719;28;20988;-73
2022/01/02 10:06:13;;;;;;;12.97;8.60;;;8.30;99.90;;;;;;5014380;28;21034;-73
2022/01/02 10:08:39;;;;;;;11.93;8.07;;;8.30;99.90;;;;;;5004453;28;20548;-74
2022/01/02 10:11:24;;;;;;;11.30;7.47;;;8.30;99.90;;;;;;5010475;28;20892;-73
2022/01/02 10:14:02;;;;;;;10.50;7.00;;;8.30;99.90;;;;;;5013025;28;20301;-73
2022/01/02 10:16:37;;;;;;;8.37;6.13;;;8.30;99.90;;;;;;5024705;28;20460;-73
2022/01/02 10:19:28;;;;;;;9.30;6.73;;;8.30;99.90;;;;;;5021127;28;20456;-74
2022/01/02 10:21:57;;;;;;;6.03;4.90;;;8.30;99.90;;;;;;5010509;28;20467;-73
2022/01/02 10:24:27;;;;;;;6.40;5.10;;;8.30;99.90;;;;;;5033891;28;20444;-73
2022/01/02 10:27:08;;;;;;;7.10;6.43;;;8.30;99.90;;;;;;5028797;28;20451;-73
2022/01/02 10:29:44;;;;;;;9.53;6.60;;;8.40;99.90;;;;;;5030922;28;20502;-73
2022/01/02 10:32:28;;;;;;;9.70;7.53;;;8.30;99.90;;;;;;5019399;28;20455;-72
2022/01/02 10:35:13;;;;;;;8.10;6.20;;;8.30;99.90;;;;;;5001967;28;20460;-73
2022/01/02 10:37:40;;;;;;;9.40;7.23;;;8.30;99.90;;;;;;5018764;28;20460;-74
2022/01/02 10:40:23;;;;;;;8.90;5.90;;;8.40;99.90;;;;;;5010747;28;20815;-73
2022/01/02 10:42:48;;;;;;;6.10;5.33;;;8.40;99.90;;;;;;5023561;28;20547;-74
2022/01/02 10:45:36;;;;;;;7.67;5.50;;;8.40;99.90;;;;;;5024475;28;20531;-73
2022/01/02 10:48:03;;;;;;;5.70;4.80;;;8.40;99.90;;;;;;4992863;28;20391;-74
2022/01/02 10:50:29;;;;;;;6.87;5.00;;;8.40;99.90;;;;;;5010269;28;20547;-74
2022/01/02 10:52:55;;;;;;;6.93;4.83;;;8.40;99.90;;;;;;5012310;28;20555;-73
2022/01/02 10:55:25;;;;;;;7.60;5.13;;;8.40;99.90;;;;;;5031631;28;20244;-74
2022/01/02 10:57:53;;;;;;;6.80;5.30;;;8.30;99.90;;;;;;5027562;28;20256;-73
2022/01/02 11:00:22;;;;;;;8.40;5.87;;;8.40;99.90;;;;;;5031363;28;20527;-73
2022/01/02 11:02:48;;;;;;;6.97;5.33;;;8.40;99.90;;;;;;5011340;28;20455;-73
2022/01/02 11:05:16;;;;;;;6.97;5.50;;;8.40;99.90;;;;;;5012281;28;20968;-73
2022/01/02 11:08:03;;;;;;;7.73;5.50;;;8.50;99.90;;;;;;5011556;28;20464;-74
2022/01/02 11:10:35;;;;;;;13.50;7.47;;;8.50;99.90;;;;;;4990377;28;20496;-72
2022/01/02 11:13:03;;;;;;;16.80;9.40;;;8.50;99.90;;;;;;5011238;28;20988;-73
2022/01/02 11:15:29;;;;;;;16.50;9.87;;;8.50;99.90;;;;;;5011414;28;20460;-73
2022/01/02 11:17:56;;;;;;;15.10;7.93;;;8.50;99.90;;;;;;5010994;28;20456;-73
2022/01/02 11:20:24;;;;;;;14.37;8.87;;;8.50;99.90;;;;;;5012074;28;20511;-73
2022/01/02 11:22:58;;;;;;;10.43;7.23;;;8.50;99.90;;;;;;5009589;28;20461;-73
2022/01/02 11:25:58;;;;;;;12.57;7.87;;;8.60;99.90;;;;;;5008409;28;20988;-73
2022/01/02 11:28:32;;;;;;;8.63;6.37;;;8.60;99.90;;;;;;5019247;28;20485;-73
2022/01/02 11:30:58;;;;;;;7.43;6.23;;;8.60;99.90;;;;;;5007154;28;20559;-74
2022/01/02 11:33:32;;;;;;;12.20;7.87;;;8.60;99.90;;;;;;5010418;28;20523;-73
2022/01/02 11:36:01;;;;;;;10.53;6.97;;;8.60;99.90;;;;;;5029309;28;20227;-74
2022/01/02 11:38:42;;;;;;;9.77;6.80;;;8.60;99.90;;;;;;5007116;28;20473;-74
2022/01/02 11:41:08;;;;;;;9.90;6.67;;;8.70;99.90;;;;;;5012973;28;20454;-73
2022/01/02 11:43:49;;;;;;;7.37;5.53;;;8.70;99.90;;;;;;5019330;28;20458;-73
2022/01/02 11:46:22;;;;;;;7.80;5.60;;;8.70;99.90;;;;;;5055225;28;20227;-73
2022/01/02 11:49:15;;;;;;;8.07;5.90;;;8.70;99.90;;;;;;5041317;28;20569;-74
2022/01/02 11:51:47;;;;;;;9.90;6.87;;;8.70;99.90;;;;;;5049495;28;20464;-73
2022/01/02 11:54:28;;;;;;;7.30;6.10;;;8.80;99.90;;;;;;5066261;28;20503;-73
2022/01/02 11:56:55;;;;;;;8.00;5.80;;;8.80;99.90;;;;;;5054336;28;20458;-74
2022/01/02 11:59:39;;;;;;;13.47;7.60;;;8.90;99.90;;;;;;5066979;28;20443;-74
2022/01/02 12:02:17;;;;;;;11.53;7.40;;;8.90;99.90;;;;;;5038279;28;20459;-74
2022/01/02 12:07:33;;;;;;;11.10;8.40;;;9.00;99.90;;;;;;5013158;28;20461;-72
2022/01/02 12:10:16;;;;;;;15.27;8.63;;;9.00;99.90;;;;;;5028566;28;20525;-73
2022/01/02 12:13:17;;;;;;;11.93;8.23;;;9.00;99.90;;;;;;5028714;28;20490;-73
2022/01/02 12:15:43;;;;;;;10.77;8.33;;;9.00;99.90;;;;;;4998336;28;20498;-74
2022/01/02 12:18:12;;;;;;;9.13;6.90;;;9.10;99.90;;;;;;5012599;28;20498;-72
2022/01/02 12:20:50;;;;;;;9.90;7.13;;;9.10;99.90;;;;;;5031577;28;20224;-73
2022/01/02 12:23:34;;;;;;;;;;;;;;;;;;;;;
2022/01/02 12:26:10;;;;;;;18.33;11.77;;;9.30;99.90;;;;;;5039266;28;20478;-73
2022/01/02 12:28:59;;;;;;;17.50;12.17;;;9.30;99.90;;;;;;5027770;28;20461;-73
2022/01/02 12:31:36;;;;;;;18.47;12.23;;;9.40;99.90;;;;;;5019120;28;20451;-72
2022/01/02 12:34:06;;;;;;;12.17;9.73;;;9.50;99.90;;;;;;5034089;28;20566;-73
2022/01/02 12:36:32;;;;;;;12.70;7.60;;;9.80;99.90;;;;;;5010664;28;20459;-74
2022/01/02 12:39:02;;;;;;;7.93;5.97;;;10.00;99.90;;;;;;5019345;28;20458;-73
2022/01/02 12:41:30;;;;;;;9.23;4.93;;;10.10;99.90;;;;;;5023936;28;21016;-73
2022/01/02 12:44:02;;;;;;;5.17;3.87;;;10.10;99.90;;;;;;5032933;28;20994;-73
2022/01/02 12:46:47;;;;;;;3.73;3.00;;;10.20;99.90;;;;;;5051278;28;20465;-73
2022/01/02 12:49:15;;;;;;;5.60;3.90;;;10.30;99.90;;;;;;5014163;28;20535;-73
2022/01/02 12:51:46;;;;;;;4.10;3.43;;;10.40;99.90;;;;;;4997818;28;20479;-73
2022/01/02 12:54:21;;;;;;;3.80;3.27;;;10.40;99.90;;;;;;5017148;28;20464;-73
2022/01/02 12:56:48;;;;;;;3.30;3.00;;;10.40;99.90;;;;;;4991044;28;20467;-73
2022/01/02 12:59:22;;;;;;;4.37;3.97;;;10.50;99.90;;;;;;4999389;28;20824;-73
2022/01/02 13:01:54;;;;;;;4.43;4.00;;;10.50;99.90;;;;;;5019755;28;20827;-74
2022/01/02 13:04:22;;;;;;;5.93;3.60;;;10.50;99.90;;;;;;5031907;28;20462;-73
2022/01/02 13:06:53;;;;;;;4.30;3.90;;;10.60;99.90;;;;;;5014226;28;20972;-74
2022/01/02 13:09:23;;;;;;;4.27;2.90;;;10.60;99.90;;;;;;5011449;28;20500;-73